Sextonville, Wisconsin
Current Conditions -  °F | °C
As of 3:56 PM on Friday 24 Oct 2014 (Local Time) from KLNR Reporting Station
Broken Clouds Broken Clouds  
Wind Chill: 67°   Ceiling: 6000
Heat Index: 67°   Visibility: 10mi
Dew Point: 50°   Wind: 9mph
Humidity: 54%   Direction: 160°SSE
Pressure: 29.9"   Gusts: NA
Location:  43.28°N, 90.29°W
Report Text: KLNR 242056Z AUTO 16008KT 10SM BKN060 BKN080 19/10 A2990 RMK AO2 SLP120 T01940100 56031
Loading
Personal Weather Stations






























Interactive Weather Map
Tropical Storm Tracking
New forecast layout! Learn more

10-Day Weather Forecast

Advertisements
Track Severe Weather on mobile